sensor_id;sensor_type;location;lat;lon;timestamp;pressure;altitude;pressure_sealevel;temperature;humidity
4981;BME280;2507;50.392;7.482;2022-07-01T00:00:25;100718.22;;;18.13;76.56
4981;BME280;2507;50.392;7.482;2022-07-01T00:02:50;100724.63;;;18.28;75.67
4981;BME280;2507;50.392;7.482;2022-07-01T00:05:16;100737.47;;;18.32;75.45
4981;BME280;2507;50.392;7.482;2022-07-01T00:07:41;100745.25;;;18.44;74.15
4981;BME280;2507;50.392;7.482;2022-07-01T00:10:07;100743.91;;;18.48;73.83
4981;BME280;2507;50.392;7.482;2022-07-01T00:12:32;100734.44;;;18.45;73.76
4981;BME280;2507;50.392;7.482;2022-07-01T00:14:57;100729.63;;;18.31;74.00
4981;BME280;2507;50.392;7.482;2022-07-01T00:17:23;100731.66;;;18.29;75.09
4981;BME280;2507;50.392;7.482;2022-07-01T00:19:48;100737.53;;;18.41;73.86
4981;BME280;2507;50.392;7.482;2022-07-01T00:22:15;100750.75;;;18.50;74.40
4981;BME280;2507;50.392;7.482;2022-07-01T00:24:40;100748.28;;;18.57;73.33
4981;BME280;2507;50.392;7.482;2022-07-01T00:27:05;100744.75;;;18.74;72.85
4981;BME280;2507;50.392;7.482;2022-07-01T00:29:30;100739.06;;;18.94;71.88
4981;BME280;2507;50.392;7.482;2022-07-01T00:31:58;100741.16;;;18.83;72.30
4981;BME280;2507;50.392;7.482;2022-07-01T00:34:23;100744.50;;;18.85;71.75
4981;BME280;2507;50.392;7.482;2022-07-01T00:36:48;100749.41;;;18.72;72.85
4981;BME280;2507;50.392;7.482;2022-07-01T00:39:14;100738.06;;;18.70;72.52
4981;BME280;2507;50.392;7.482;2022-07-01T00:41:39;100751.28;;;18.79;72.27
4981;BME280;2507;50.392;7.482;2022-07-01T00:44:04;100748.56;;;18.71;72.79
4981;BME280;2507;50.392;7.482;2022-07-01T00:46:29;100747.88;;;18.69;72.21
4981;BME280;2507;50.392;7.482;2022-07-01T00:48:56;100744.50;;;18.59;72.54
4981;BME280;2507;50.392;7.482;2022-07-01T00:51:23;100732.72;;;18.62;72.94
4981;BME280;2507;50.392;7.482;2022-07-01T00:53:48;100742.19;;;18.64;72.45
4981;BME280;2507;50.392;7.482;2022-07-01T00:56:14;100749.22;;;18.73;72.59
4981;BME280;2507;50.392;7.482;2022-07-01T00:58:39;100756.91;;;18.76;72.34
4981;BME280;2507;50.392;7.482;2022-07-01T01:01:05;100766.81;;;18.66;72.17
4981;BME280;2507;50.392;7.482;2022-07-01T01:03:30;100770.81;;;18.70;72.47
4981;BME280;2507;50.392;7.482;2022-07-01T01:05:57;100774.63;;;18.68;72.53
4981;BME280;2507;50.392;7.482;2022-07-01T01:08:22;100773.81;;;18.67;72.26
4981;BME280;2507;50.392;7.482;2022-07-01T01:10:48;100782.44;;;18.69;72.16
4981;BME280;2507;50.392;7.482;2022-07-01T01:13:13;100785.91;;;18.62;72.47
4981;BME280;2507;50.392;7.482;2022-07-01T01:15:39;100784.44;;;18.67;72.53
4981;BME280;2507;50.392;7.482;2022-07-01T01:18:05;100799.44;;;18.51;73.71
4981;BME280;2507;50.392;7.482;2022-07-01T01:20:37;100796.09;;;18.49;74.18
4981;BME280;2507;50.392;7.482;2022-07-01T01:23:03;100792.19;;;18.25;75.61
4981;BME280;2507;50.392;7.482;2022-07-01T01:25:32;100803.31;;;18.21;75.46
4981;BME280;2507;50.392;7.482;2022-07-01T01:27:58;100819.78;;;18.42;74.18
4981;BME280;2507;50.392;7.482;2022-07-01T01:30:23;100818.78;;;18.61;73.50
4981;BME280;2507;50.392;7.482;2022-07-01T01:32:48;100821.59;;;18.59;73.44
4981;BME280;2507;50.392;7.482;2022-07-01T01:35:15;100825.13;;;18.68;72.77
4981;BME280;2507;50.392;7.482;2022-07-01T01:37:40;100822.19;;;18.53;73.03
4981;BME280;2507;50.392;7.482;2022-07-01T01:40:06;100820.66;;;18.68;72.43
4981;BME280;2507;50.392;7.482;2022-07-01T01:42:31;100813.81;;;18.66;71.93
4981;BME280;2507;50.392;7.482;2022-07-01T01:44:57;100810.75;;;18.53;72.27
4981;BME280;2507;50.392;7.482;2022-07-01T01:47:22;100814.91;;;18.55;72.19
4981;BME280;2507;50.392;7.482;2022-07-01T01:49:47;100818.94;;;18.59;71.90
4981;BME280;2507;50.392;7.482;2022-07-01T01:52:13;100812.50;;;18.62;71.91
4981;BME280;2507;50.392;7.482;2022-07-01T01:54:38;100806.25;;;18.71;70.93
4981;BME280;2507;50.392;7.482;2022-07-01T01:57:04;100804.50;;;18.87;69.45
4981;BME280;2507;50.392;7.482;2022-07-01T01:59:30;100800.34;;;18.85;69.20
4981;BME280;2507;50.392;7.482;2022-07-01T02:01:55;100806.25;;;18.71;69.04
4981;BME280;2507;50.392;7.482;2022-07-01T02:04:20;100823.13;;;18.62;69.07
4981;BME280;2507;50.392;7.482;2022-07-01T02:06:48;100825.03;;;18.52;69.84
4981;BME280;2507;50.392;7.482;2022-07-01T02:09:13;100827.88;;;18.41;70.22
4981;BME280;2507;50.392;7.482;2022-07-01T02:11:39;100832.28;;;18.32;70.92
4981;BME280;2507;50.392;7.482;2022-07-01T02:14:04;100840.91;;;18.44;70.94
4981;BME280;2507;50.392;7.482;2022-07-01T02:16:29;100854.34;;;18.42;71.30
4981;BME280;2507;50.392;7.482;2022-07-01T02:18:54;100855.31;;;18.23;72.44
4981;BME280;2507;50.392;7.482;2022-07-01T02:21:20;100871.06;;;18.07;73.61
4981;BME280;2507;50.392;7.482;2022-07-01T02:23:45;100878.13;;;18.16;73.37
4981;BME280;2507;50.392;7.482;2022-07-01T02:26:10;100885.03;;;18.09;73.13
4981;BME280;2507;50.392;7.482;2022-07-01T02:28:36;100879.66;;;18.01;73.34
4981;BME280;2507;50.392;7.482;2022-07-01T02:31:01;100864.88;;;17.89;72.79
4981;BME280;2507;50.392;7.482;2022-07-01T02:33:28;100863.97;;;17.81;72.72
4981;BME280;2507;50.392;7.482;2022-07-01T02:35:55;100874.59;;;17.81;72.69
4981;BME280;2507;50.392;7.482;2022-07-01T02:38:20;100879.31;;;17.87;72.60
4981;BME280;2507;50.392;7.482;2022-07-01T02:40:46;100890.00;;;17.95;72.97
4981;BME280;2507;50.392;7.482;2022-07-01T02:43:11;100896.22;;;17.86;73.21
4981;BME280;2507;50.392;7.482;2022-07-01T02:45:37;100888.78;;;17.89;73.35
4981;BME280;2507;50.392;7.482;2022-07-01T02:48:03;100884.91;;;17.84;73.19
4981;BME280;2507;50.392;7.482;2022-07-01T02:50:28;100884.97;;;17.74;73.60
4981;BME280;2507;50.392;7.482;2022-07-01T02:52:54;100873.81;;;17.71;73.67
4981;BME280;2507;50.392;7.482;2022-07-01T02:55:19;100887.75;;;17.73;73.64
4981;BME280;2507;50.392;7.482;2022-07-01T02:57:46;100893.63;;;17.76;73.01
4981;BME280;2507;50.392;7.482;2022-07-01T03:00:14;100894.44;;;17.77;72.48
4981;BME280;2507;50.392;7.482;2022-07-01T03:02:40;100874.69;;;17.62;72.40
4981;BME280;2507;50.392;7.482;2022-07-01T03:05:06;100861.50;;;17.70;71.82
4981;BME280;2507;50.392;7.482;2022-07-01T03:07:31;100876.31;;;17.72;71.56
4981;BME280;2507;50.392;7.482;2022-07-01T03:09:57;100876.16;;;17.74;71.83
4981;BME280;2507;50.392;7.482;2022-07-01T03:12:22;100856.09;;;17.89;70.88
4981;BME280;2507;50.392;7.482;2022-07-01T03:15:13;100859.84;;;17.96;70.13
4981;BME280;2507;50.392;7.482;2022-07-01T03:17:40;100862.19;;;17.99;69.69
4981;BME280;2507;50.392;7.482;2022-07-01T03:20:07;100864.16;;;17.97;69.80
4981;BME280;2507;50.392;7.482;2022-07-01T03:22:34;100872.03;;;17.89;70.39
4981;BME280;2507;50.392;7.482;2022-07-01T03:25:00;100873.84;;;17.61;71.55
4981;BME280;2507;50.392;7.482;2022-07-01T03:27:26;100878.63;;;17.58;71.40
4981;BME280;2507;50.392;7.482;2022-07-01T03:29:52;100866.31;;;17.57;71.60
4981;BME280;2507;50.392;7.482;2022-07-01T03:32:17;100864.34;;;17.59;71.42
4981;BME280;2507;50.392;7.482;2022-07-01T03:34:46;100852.34;;;17.55;71.34
4981;BME280;2507;50.392;7.482;2022-07-01T03:37:13;100849.56;;;17.56;70.54
4981;BME280;2507;50.392;7.482;2022-07-01T03:39:39;100848.97;;;17.62;70.10
4981;BME280;2507;50.392;7.482;2022-07-01T03:42:05;100850.25;;;17.58;70.96
4981;BME280;2507;50.392;7.482;2022-07-01T03:44:32;100856.44;;;17.49;70.71
4981;BME280;2507;50.392;7.482;2022-07-01T03:46:58;100867.50;;;17.35;71.46
4981;BME280;2507;50.392;7.482;2022-07-01T03:49:23;100861.06;;;17.38;71.01
4981;BME280;2507;50.392;7.482;2022-07-01T03:51:49;100860.00;;;17.30;70.49
4981;BME280;2507;50.392;7.482;2022-07-01T03:54:15;100853.97;;;17.28;70.49
4981;BME280;2507;50.392;7.482;2022-07-01T03:56:58;100850.09;;;17.23;70.40
4981;BME280;2507;50.392;7.482;2022-07-01T03:59:25;100849.41;;;17.21;70.55
4981;BME280;2507;50.392;7.482;2022-07-01T04:01:51;100845.41;;;17.34;70.02
4981;BME280;2507;50.392;7.482;2022-07-01T04:04:17;100854.19;;;17.54;69.44
4981;BME280;2507;50.392;7.482;2022-07-01T04:06:43;100855.44;;;17.60;69.04
4981;BME280;2507;50.392;7.482;2022-07-01T04:09:09;100859.22;;;17.48;69.43
4981;BME280;2507;50.392;7.482;2022-07-01T04:11:34;100853.19;;;17.55;69.85
4981;BME280;2507;50.392;7.482;2022-07-01T04:13:59;100864.00;;;17.71;68.75
4981;BME280;2507;50.392;7.482;2022-07-01T04:16:25;100858.44;;;17.74;68.32
4981;BME280;2507;50.392;7.482;2022-07-01T04:18:51;100859.34;;;17.83;68.36
4981;BME280;2507;50.392;7.482;2022-07-01T04:21:17;100848.97;;;17.62;69.07
4981;BME280;2507;50.392;7.482;2022-07-01T04:24:00;100858.50;;;17.55;68.47
4981;BME280;2507;50.392;7.482;2022-07-01T04:26:26;100870.06;;;17.64;68.74
4981;BME280;2507;50.392;7.482;2022-07-01T04:28:52;100860.13;;;17.66;68.78
4981;BME280;2507;50.392;7.482;2022-07-01T04:31:17;100864.63;;;17.65;68.28
4981;BME280;2507;50.392;7.482;2022-07-01T04:33:44;100861.28;;;17.63;68.30
4981;BME280;2507;50.392;7.482;2022-07-01T04:36:09;100865.94;;;17.52;68.66
4981;BME280;2507;50.392;7.482;2022-07-01T04:38:34;100864.66;;;17.46;69.02
4981;BME280;2507;50.392;7.482;2022-07-01T04:41:00;100870.28;;;17.33;69.60
4981;BME280;2507;50.392;7.482;2022-07-01T04:43:43;100871.03;;;17.16;70.91
4981;BME280;2507;50.392;7.482;2022-07-01T04:46:08;100869.69;;;17.12;70.63
4981;BME280;2507;50.392;7.482;2022-07-01T04:48:34;100872.34;;;17.12;70.47
4981;BME280;2507;50.392;7.482;2022-07-01T04:50:59;100875.03;;;17.40;69.66
4981;BME280;2507;50.392;7.482;2022-07-01T04:53:24;100867.88;;;17.40;69.31
4981;BME280;2507;50.392;7.482;2022-07-01T04:55:50;100872.28;;;17.22;69.22
4981;BME280;2507;50.392;7.482;2022-07-01T04:58:15;100885.00;;;17.18;69.86
4981;BME280;2507;50.392;7.482;2022-07-01T05:00:40;100904.16;;;17.12;70.38
4981;BME280;2507;50.392;7.482;2022-07-01T05:03:06;100901.78;;;17.09;69.70
4981;BME280;2507;50.392;7.482;2022-07-01T05:05:31;100902.16;;;17.24;69.99
4981;BME280;2507;50.392;7.482;2022-07-01T05:07:56;100910.78;;;17.45;68.90
4981;BME280;2507;50.392;7.482;2022-07-01T05:10:21;100906.34;;;17.73;67.94
4981;BME280;2507;50.392;7.482;2022-07-01T05:12:48;100913.72;;;17.79;67.57
4981;BME280;2507;50.392;7.482;2022-07-01T05:15:14;100908.78;;;18.11;66.46
4981;BME280;2507;50.392;7.482;2022-07-01T05:17:39;100909.88;;;18.18;65.80
4981;BME280;2507;50.392;7.482;2022-07-01T05:20:23;100905.53;;;18.34;65.01
4981;BME280;2507;50.392;7.482;2022-07-01T05:23:07;100891.41;;;18.61;64.14
4981;BME280;2507;50.392;7.482;2022-07-01T05:25:32;100912.69;;;18.44;64.14
4981;BME280;2507;50.392;7.482;2022-07-01T05:27:57;100919.53;;;18.36;64.94
4981;BME280;2507;50.392;7.482;2022-07-01T05:30:22;100915.06;;;18.37;65.49
4981;BME280;2507;50.392;7.482;2022-07-01T05:32:48;100905.13;;;18.39;66.41
4981;BME280;2507;50.392;7.482;2022-07-01T05:35:13;100895.56;;;18.46;65.57
4981;BME280;2507;50.392;7.482;2022-07-01T05:37:39;100908.41;;;18.68;64.91
4981;BME280;2507;50.392;7.482;2022-07-01T05:40:05;100914.75;;;19.10;64.02
4981;BME280;2507;50.392;7.482;2022-07-01T05:42:31;100936.88;;;19.37;62.31
4981;BME280;2507;50.392;7.482;2022-07-01T05:44:56;100939.44;;;19.46;62.20
4981;BME280;2507;50.392;7.482;2022-07-01T05:47:21;100955.50;;;19.54;62.27
4981;BME280;2507;50.392;7.482;2022-07-01T05:49:46;100952.63;;;19.81;61.80
4981;BME280;2507;50.392;7.482;2022-07-01T05:52:12;100945.41;;;20.07;60.00
4981;BME280;2507;50.392;7.482;2022-07-01T05:54:37;100939.00;;;20.26;59.81
4981;BME280;2507;50.392;7.482;2022-07-01T05:57:03;100953.41;;;20.57;58.83
4981;BME280;2507;50.392;7.482;2022-07-01T05:59:28;100955.78;;;20.76;57.60
4981;BME280;2507;50.392;7.482;2022-07-01T06:01:54;100944.97;;;21.02;56.67
4981;BME280;2507;50.392;7.482;2022-07-01T06:04:19;100939.75;;;21.41;55.90
4981;BME280;2507;50.392;7.482;2022-07-01T06:06:44;100942.06;;;21.60;54.54
4981;BME280;2507;50.392;7.482;2022-07-01T06:09:09;100947.72;;;21.81;53.96
4981;BME280;2507;50.392;7.482;2022-07-01T06:11:35;100939.88;;;21.63;54.15
4981;BME280;2507;50.392;7.482;2022-07-01T06:14:00;100942.75;;;21.62;53.59
4981;BME280;2507;50.392;7.482;2022-07-01T06:16:25;100944.56;;;21.61;53.71
4981;BME280;2507;50.392;7.482;2022-07-01T06:18:50;100949.06;;;21.69;53.68
4981;BME280;2507;50.392;7.482;2022-07-01T06:21:16;100931.09;;;21.39;53.48
4981;BME280;2507;50.392;7.482;2022-07-01T06:23:42;100953.63;;;21.28;53.98
4981;BME280;2507;50.392;7.482;2022-07-01T06:26:07;100956.13;;;21.38;54.01
4981;BME280;2507;50.392;7.482;2022-07-01T06:28:32;100939.75;;;21.41;53.87
4981;BME280;2507;50.392;7.482;2022-07-01T06:30:58;100924.53;;;21.65;53.76
4981;BME280;2507;50.392;7.482;2022-07-01T06:33:23;100930.47;;;22.22;52.41
4981;BME280;2507;50.392;7.482;2022-07-01T06:35:48;100944.06;;;22.96;50.62
4981;BME280;2507;50.392;7.482;2022-07-01T06:38:14;100956.28;;;22.76;50.06
4981;BME280;2507;50.392;7.482;2022-07-01T06:40:39;100961.75;;;22.21;51.56
4981;BME280;2507;50.392;7.482;2022-07-01T06:43:04;100951.28;;;22.04;51.58
4981;BME280;2507;50.392;7.482;2022-07-01T06:45:30;100950.28;;;22.05;51.85
4981;BME280;2507;50.392;7.482;2022-07-01T06:47:56;100953.47;;;22.00;51.76
4981;BME280;2507;50.392;7.482;2022-07-01T06:50:21;100961.28;;;22.10;51.92
4981;BME280;2507;50.392;7.482;2022-07-01T06:52:46;100959.72;;;21.85;52.72
4981;BME280;2507;50.392;7.482;2022-07-01T06:55:12;100971.25;;;21.77;52.82
4981;BME280;2507;50.392;7.482;2022-07-01T06:57:37;100976.63;;;21.53;53.82
4981;BME280;2507;50.392;7.482;2022-07-01T07:00:03;100974.00;;;21.37;54.01
4981;BME280;2507;50.392;7.482;2022-07-01T07:02:28;100987.84;;;21.08;54.92
4981;BME280;2507;50.392;7.482;2022-07-01T07:04:54;100991.31;;;20.93;54.67
4981;BME280;2507;50.392;7.482;2022-07-01T07:07:23;100978.09;;;20.59;56.05
4981;BME280;2507;50.392;7.482;2022-07-01T07:09:48;100963.03;;;20.34;56.48
4981;BME280;2507;50.392;7.482;2022-07-01T07:12:14;100979.34;;;20.31;57.14
4981;BME280;2507;50.392;7.482;2022-07-01T07:14:39;100983.47;;;20.25;56.52
4981;BME280;2507;50.392;7.482;2022-07-01T07:17:04;100983.69;;;20.40;55.82
4981;BME280;2507;50.392;7.482;2022-07-01T07:19:29;100984.56;;;20.49;56.07
4981;BME280;2507;50.392;7.482;2022-07-01T07:21:55;100991.78;;;20.72;54.75
4981;BME280;2507;50.392;7.482;2022-07-01T07:24:21;100990.13;;;20.71;54.68
4981;BME280;2507;50.392;7.482;2022-07-01T07:26:46;100995.28;;;20.65;55.24
4981;BME280;2507;50.392;7.482;2022-07-01T07:29:12;101002.66;;;20.87;54.88
4981;BME280;2507;50.392;7.482;2022-07-01T07:31:38;101017.22;;;21.16;53.65
4981;BME280;2507;50.392;7.482;2022-07-01T07:34:03;101026.22;;;21.31;53.87
4981;BME280;2507;50.392;7.482;2022-07-01T07:36:28;101014.38;;;21.50;53.08
4981;BME280;2507;50.392;7.482;2022-07-01T07:38:53;101015.00;;;21.76;52.76
4981;BME280;2507;50.392;7.482;2022-07-01T07:41:19;101015.59;;;22.10;52.93
4981;BME280;2507;50.392;7.482;2022-07-01T07:43:44;101018.16;;;22.73;50.00
4981;BME280;2507;50.392;7.482;2022-07-01T07:46:09;101030.13;;;23.53;48.07
4981;BME280;2507;50.392;7.482;2022-07-01T07:48:35;101021.22;;;23.90;46.94
4981;BME280;2507;50.392;7.482;2022-07-01T07:51:00;101033.03;;;23.81;46.22
4981;BME280;2507;50.392;7.482;2022-07-01T07:53:25;101041.16;;;23.73;47.16
4981;BME280;2507;50.392;7.482;2022-07-01T07:55:51;101036.41;;;23.60;47.06
4981;BME280;2507;50.392;7.482;2022-07-01T07:58:16;101037.38;;;23.67;47.28
4981;BME280;2507;50.392;7.482;2022-07-01T08:00:42;101047.59;;;23.64;46.93
4981;BME280;2507;50.392;7.482;2022-07-01T08:03:07;101029.72;;;23.79;46.82
4981;BME280;2507;50.392;7.482;2022-07-01T08:05:33;101024.78;;;24.19;46.98
4981;BME280;2507;50.392;7.482;2022-07-01T08:07:58;101020.59;;;24.82;45.60
4981;BME280;2507;50.392;7.482;2022-07-01T08:10:23;101019.13;;;24.65;46.27
4981;BME280;2507;50.392;7.482;2022-07-01T08:12:49;101023.78;;;24.56;46.24
4981;BME280;2507;50.392;7.482;2022-07-01T08:15:16;101017.44;;;24.78;45.69
4981;BME280;2507;50.392;7.482;2022-07-01T08:17:41;101018.34;;;25.27;44.14
4981;BME280;2507;50.392;7.482;2022-07-01T08:20:07;101036.06;;;25.22;44.33
4981;BME280;2507;50.392;7.482;2022-07-01T08:22:33;101000.53;;;24.63;45.69
4981;BME280;2507;50.392;7.482;2022-07-01T08:24:58;100999.22;;;24.74;45.00
4981;BME280;2507;50.392;7.482;2022-07-01T08:27:23;101006.16;;;24.68;45.12
4981;BME280;2507;50.392;7.482;2022-07-01T08:29:49;101007.97;;;24.47;45.10
4981;BME280;2507;50.392;7.482;2022-07-01T08:32:14;100998.63;;;24.43;45.26
4981;BME280;2507;50.392;7.482;2022-07-01T08:34:39;101000.34;;;24.00;44.63
4981;BME280;2507;50.392;7.482;2022-07-01T08:37:05;101009.97;;;23.43;45.86
4981;BME280;2507;50.392;7.482;2022-07-01T08:39:31;101005.38;;;23.06;46.72
4981;BME280;2507;50.392;7.482;2022-07-01T08:41:57;101001.69;;;22.62;48.70
4981;BME280;2507;50.392;7.482;2022-07-01T08:44:22;101003.81;;;22.27;50.77
4981;BME280;2507;50.392;7.482;2022-07-01T08:46:47;101004.78;;;21.96;51.75
4981;BME280;2507;50.392;7.482;2022-07-01T08:49:13;101007.22;;;22.13;51.06
4981;BME280;2507;50.392;7.482;2022-07-01T08:51:38;101008.34;;;22.27;51.33
4981;BME280;2507;50.392;7.482;2022-07-01T08:54:04;101010.22;;;22.57;50.48
4981;BME280;2507;50.392;7.482;2022-07-01T08:56:29;101015.47;;;22.73;50.14
4981;BME280;2507;50.392;7.482;2022-07-01T08:59:07;101025.97;;;22.44;50.29
4981;BME280;2507;50.392;7.482;2022-07-01T09:01:33;101020.25;;;22.63;50.46
4981;BME280;2507;50.392;7.482;2022-07-01T09:04:20;101022.66;;;23.03;48.42
4981;BME280;2507;50.392;7.482;2022-07-01T09:06:47;101028.72;;;22.97;48.34
4981;BME280;2507;50.392;7.482;2022-07-01T09:09:17;101016.09;;;23.28;47.14
4981;BME280;2507;50.392;7.482;2022-07-01T09:11:50;101022.31;;;23.95;45.19
4981;BME280;2507;50.392;7.482;2022-07-01T09:14:21;101020.84;;;24.22;45.01
4981;BME280;2507;50.392;7.482;2022-07-01T09:17:01;101011.63;;;24.24;45.08
4981;BME280;2507;50.392;7.482;2022-07-01T09:19:28;101024.56;;;24.21;45.57
4981;BME280;2507;50.392;7.482;2022-07-01T09:21:58;101034.53;;;24.56;44.66
4981;BME280;2507;50.392;7.482;2022-07-01T09:29:28;101030.66;;;24.94;43.54
4981;BME280;2507;50.392;7.482;2022-07-01T09:31:55;101038.72;;;25.15;41.57
4981;BME280;2507;50.392;7.482;2022-07-01T09:34:20;101034.63;;;25.19;41.55
4981;BME280;2507;50.392;7.482;2022-07-01T09:36:56;101033.31;;;25.37;41.59
4981;BME280;2507;50.392;7.482;2022-07-01T09:39:22;101026.41;;;25.27;41.79
4981;BME280;2507;50.392;7.482;2022-07-01T09:41:47;101044.06;;;26.13;40.50
4981;BME280;2507;50.392;7.482;2022-07-01T09:44:13;101034.06;;;26.35;39.86
4981;BME280;2507;50.392;7.482;2022-07-01T09:46:51;101030.34;;;27.02;38.50
4981;BME280;2507;50.392;7.482;2022-07-01T09:49:17;101025.03;;;27.48;37.77
4981;BME280;2507;50.392;7.482;2022-07-01T09:51:42;101018.38;;;27.44;37.97
4981;BME280;2507;50.392;7.482;2022-07-01T09:54:08;101025.78;;;27.09;39.47
4981;BME280;2507;50.392;7.482;2022-07-01T09:56:36;101007.75;;;26.90;40.15
4981;BME280;2507;50.392;7.482;2022-07-01T09:59:03;101014.78;;;26.91;38.02
4981;BME280;2507;50.392;7.482;2022-07-01T10:01:28;101012.19;;;26.64;38.71
4981;BME280;2507;50.392;7.482;2022-07-01T10:03:55;101010.81;;;26.27;38.26
4981;BME280;2507;50.392;7.482;2022-07-01T10:09:21;101021.50;;;25.80;39.02
4981;BME280;2507;50.392;7.482;2022-07-01T10:12:43;101021.25;;;25.05;39.93
4981;BME280;2507;50.392;7.482;2022-07-01T10:14:43;101007.56;;;24.64;40.80
4981;BME280;2507;50.392;7.482;2022-07-01T10:17:09;101006.81;;;24.20;42.67
4981;BME280;2507;50.392;7.482;2022-07-01T10:19:34;101004.13;;;23.91;43.46
4981;BME280;2507;50.392;7.482;2022-07-01T10:24:47;101017.16;;;23.42;43.31
4981;BME280;2507;50.392;7.482;2022-07-01T10:27:23;101023.09;;;24.04;42.58
4981;BME280;2507;50.392;7.482;2022-07-01T10:29:49;101024.06;;;23.74;43.86
4981;BME280;2507;50.392;7.482;2022-07-01T10:32:41;101027.31;;;22.79;46.49
4981;BME280;2507;50.392;7.482;2022-07-01T10:35:07;101033.88;;;22.38;46.44
4981;BME280;2507;50.392;7.482;2022-07-01T10:37:32;101033.41;;;22.26;46.99
4981;BME280;2507;50.392;7.482;2022-07-01T10:39:59;101028.97;;;22.49;46.25
4981;BME280;2507;50.392;7.482;2022-07-01T10:42:29;101033.22;;;22.97;45.48
4981;BME280;2507;50.392;7.482;2022-07-01T10:45:11;101023.16;;;23.81;43.41
4981;BME280;2507;50.392;7.482;2022-07-01T10:47:38;101023.84;;;24.27;42.20
4981;BME280;2507;50.392;7.482;2022-07-01T10:50:10;101027.81;;;24.81;41.18
4981;BME280;2507;50.392;7.482;2022-07-01T10:52:35;101026.69;;;25.11;40.28
4981;BME280;2507;50.392;7.482;2022-07-01T10:55:03;101019.22;;;24.57;41.46
4981;BME280;2507;50.392;7.482;2022-07-01T10:57:35;101012.78;;;23.78;42.67
4981;BME280;2507;50.392;7.482;2022-07-01T11:02:37;101009.34;;;24.57;41.70
4981;BME280;2507;50.392;7.482;2022-07-01T11:05:08;101009.03;;;24.81;41.63
4981;BME280;2507;50.392;7.482;2022-07-01T11:07:36;101011.72;;;24.81;41.28
4981;BME280;2507;50.392;7.482;2022-07-01T11:10:05;101015.50;;;25.29;40.74
4981;BME280;2507;50.392;7.482;2022-07-01T11:12:31;101013.84;;;25.07;41.66
4981;BME280;2507;50.392;7.482;2022-07-01T11:14:58;101015.84;;;24.84;41.08
4981;BME280;2507;50.392;7.482;2022-07-01T11:17:33;101004.16;;;24.20;42.46
4981;BME280;2507;50.392;7.482;2022-07-01T11:19:59;101013.00;;;24.85;41.47
4981;BME280;2507;50.392;7.482;2022-07-01T11:22:31;101012.25;;;24.77;40.89
4981;BME280;2507;50.392;7.482;2022-07-01T11:25:02;101009.22;;;24.15;41.01
4981;BME280;2507;50.392;7.482;2022-07-01T11:27:29;101012.66;;;24.09;41.13
4981;BME280;2507;50.392;7.482;2022-07-01T11:29:59;101015.13;;;24.40;41.05
4981;BME280;2507;50.392;7.482;2022-07-01T11:32:28;101016.91;;;24.18;40.90
4981;BME280;2507;50.392;7.482;2022-07-01T11:34:55;101017.41;;;24.43;40.94
4981;BME280;2507;50.392;7.482;2022-07-01T11:37:21;101020.97;;;24.64;40.60
4981;BME280;2507;50.392;7.482;2022-07-01T11:40:10;101017.97;;;25.31;39.50
4981;BME280;2507;50.392;7.482;2022-07-01T11:42:36;101021.03;;;26.04;38.85
4981;BME280;2507;50.392;7.482;2022-07-01T11:45:03;101018.84;;;26.20;37.47
4981;BME280;2507;50.392;7.482;2022-07-01T11:47:28;101020.03;;;26.59;37.82
4981;BME280;2507;50.392;7.482;2022-07-01T11:49:55;101023.69;;;26.85;35.94
4981;BME280;2507;50.392;7.482;2022-07-01T11:52:21;101018.53;;;27.16;35.62
4981;BME280;2507;50.392;7.482;2022-07-01T11:54:49;101015.47;;;27.46;33.97
4981;BME280;2507;50.392;7.482;2022-07-01T11:57:19;101010.91;;;27.46;34.42
4981;BME280;2507;50.392;7.482;2022-07-01T11:59:46;101011.75;;;27.34;33.95
4981;BME280;2507;50.392;7.482;2022-07-01T12:02:15;101005.28;;;27.28;33.70
4981;BME280;2507;50.392;7.482;2022-07-01T12:04:41;101003.66;;;27.47;33.84
4981;BME280;2507;50.392;7.482;2022-07-01T12:07:08;101006.53;;;27.78;34.10
4981;BME280;2507;50.392;7.482;2022-07-01T12:09:35;100995.88;;;28.15;34.44
4981;BME280;2507;50.392;7.482;2022-07-01T12:12:00;100995.75;;;27.78;35.73
4981;BME280;2507;50.392;7.482;2022-07-01T12:14:33;100996.75;;;27.90;35.41
4981;BME280;2507;50.392;7.482;2022-07-01T12:17:05;101000.09;;;27.79;34.98
4981;BME280;2507;50.392;7.482;2022-07-01T12:19:41;100996.19;;;27.29;35.83
4981;BME280;2507;50.392;7.482;2022-07-01T12:22:09;101000.50;;;26.91;36.32
4981;BME280;2507;50.392;7.482;2022-07-01T12:24:35;101002.97;;;26.92;35.85
4981;BME280;2507;50.392;7.482;2022-07-01T12:27:08;100999.88;;;26.95;35.72
4981;BME280;2507;50.392;7.482;2022-07-01T12:32:06;100998.03;;;27.09;36.30
4981;BME280;2507;50.392;7.482;2022-07-01T12:37:10;101001.19;;;26.59;35.54
4981;BME280;2507;50.392;7.482;2022-07-01T12:44:45;100989.06;;;25.60;39.03
4981;BME280;2507;50.392;7.482;2022-07-01T12:47:20;100992.19;;;25.64;38.55
4981;BME280;2507;50.392;7.482;2022-07-01T12:49:46;101005.88;;;26.37;36.87
4981;BME280;2507;50.392;7.482;2022-07-01T12:52:27;100999.81;;;26.22;37.97
4981;BME280;2507;50.392;7.482;2022-07-01T12:54:55;101009.00;;;26.00;37.41
4981;BME280;2507;50.392;7.482;2022-07-01T12:57:31;100998.56;;;26.18;37.21
4981;BME280;2507;50.392;7.482;2022-07-01T12:59:58;100995.03;;;25.56;38.92
4981;BME280;2507;50.392;7.482;2022-07-01T13:02:23;100993.97;;;25.50;38.07
4981;BME280;2507;50.392;7.482;2022-07-01T13:04:49;100995.03;;;25.07;38.37
4981;BME280;2507;50.392;7.482;2022-07-01T13:07:14;100995.34;;;25.40;38.51
4981;BME280;2507;50.392;7.482;2022-07-01T13:09:39;100990.41;;;25.71;37.98
4981;BME280;2507;50.392;7.482;2022-07-01T13:12:05;100994.69;;;25.16;37.95
4981;BME280;2507;50.392;7.482;2022-07-01T13:14:30;101002.28;;;25.13;37.71
4981;BME280;2507;50.392;7.482;2022-07-01T13:16:56;100990.63;;;24.99;37.88
4981;BME280;2507;50.392;7.482;2022-07-01T13:19:21;100995.44;;;24.33;40.12
4981;BME280;2507;50.392;7.482;2022-07-01T13:21:46;100995.53;;;24.10;40.54
4981;BME280;2507;50.392;7.482;2022-07-01T13:24:11;100999.03;;;23.67;40.13
4981;BME280;2507;50.392;7.482;2022-07-01T13:26:39;101002.78;;;23.58;40.97
4981;BME280;2507;50.392;7.482;2022-07-01T13:29:04;101003.34;;;23.82;40.16
4981;BME280;2507;50.392;7.482;2022-07-01T13:31:30;101005.50;;;23.87;40.28